createdAt,value
2023-04-24T00:01:53.337Z,2.50
2023-04-24T00:04:42.076Z,3.07
2023-04-24T00:07:28.577Z,3.20
2023-04-24T00:10:14.850Z,3.10
2023-04-24T00:13:01.554Z,3.03
2023-04-24T00:15:47.875Z,3.40
2023-04-24T00:18:34.328Z,4.43
2023-04-24T00:21:22.676Z,3.10
2023-04-24T00:24:10.082Z,3.00
2023-04-24T00:26:56.550Z,2.70
2023-04-24T00:29:43.328Z,3.00
2023-04-24T00:32:29.748Z,3.37
2023-04-24T00:35:16.745Z,2.73
2023-04-24T00:38:04.480Z,3.30
2023-04-24T00:40:51.469Z,2.93
2023-04-24T00:43:37.874Z,3.13
2023-04-24T00:46:24.663Z,2.97
2023-04-24T00:49:11.118Z,3.13
2023-04-24T00:51:57.934Z,3.23
2023-04-24T00:54:45.470Z,3.17
2023-04-24T00:57:32.484Z,3.10
2023-04-24T01:00:18.782Z,3.33
2023-04-24T01:03:07.148Z,3.17
2023-04-24T01:05:53.501Z,3.63
2023-04-24T01:08:40.886Z,3.27
2023-04-24T01:11:29.065Z,2.95
2023-04-24T01:14:16.751Z,3.40
2023-04-24T01:17:03.664Z,3.30
2023-04-24T01:19:50.134Z,4.07
2023-04-24T01:22:37.790Z,3.40
2023-04-24T01:25:24.358Z,3.77
2023-04-24T01:28:10.878Z,3.20
2023-04-24T01:30:57.940Z,3.43
2023-04-24T01:33:44.513Z,3.37
2023-04-24T01:36:31.244Z,2.50
2023-04-24T01:39:19.402Z,3.10
2023-04-24T01:42:06.789Z,3.67
2023-04-24T01:44:54.839Z,3.53
2023-04-24T01:47:41.835Z,2.77
2023-04-24T01:50:28.254Z,3.30
2023-04-24T01:53:15.028Z,3.53
2023-04-24T01:56:03.787Z,3.60
2023-04-24T01:58:51.102Z,3.80
2023-04-24T02:01:38.124Z,3.70
2023-04-24T02:04:24.639Z,4.00
2023-04-24T02:07:11.374Z,4.97
2023-04-24T02:09:57.727Z,4.30
2023-04-24T02:12:45.886Z,4.10
2023-04-24T02:15:32.553Z,4.80
2023-04-24T02:18:19.103Z,4.63
2023-04-24T02:21:05.721Z,5.13
2023-04-24T02:23:52.248Z,4.43
2023-04-24T02:26:39.661Z,3.53
2023-04-24T02:29:27.381Z,4.00
2023-04-24T02:32:13.993Z,3.40
2023-04-24T02:35:00.870Z,3.40
2023-04-24T02:37:47.414Z,3.30
2023-04-24T02:40:34.060Z,3.50
2023-04-24T02:43:20.564Z,3.23
2023-04-24T02:46:08.459Z,3.37
2023-04-24T02:48:55.053Z,3.10
2023-04-24T02:51:42.331Z,3.10
2023-04-24T02:54:29.063Z,3.60
2023-04-24T02:57:16.126Z,3.40
2023-04-24T03:00:04.352Z,3.53
2023-04-24T03:02:52.216Z,3.07
2023-04-24T03:05:38.466Z,3.50
2023-04-24T03:08:25.358Z,3.73
2023-04-24T03:11:12.189Z,3.53
2023-04-24T03:13:58.548Z,4.10
2023-04-24T03:16:45.065Z,5.13
2023-04-24T03:19:32.889Z,4.27
2023-04-24T03:22:19.289Z,7.03
2023-04-24T03:25:06.250Z,7.17
2023-04-24T03:27:52.838Z,6.30
2023-04-24T03:30:38.834Z,5.10
2023-04-24T03:33:25.734Z,5.57
2023-04-24T03:36:13.400Z,4.27
2023-04-24T03:38:59.976Z,4.60
2023-04-24T03:41:46.397Z,7.77
2023-04-24T03:44:33.305Z,7.20
2023-04-24T03:47:19.313Z,7.07
2023-04-24T03:50:05.815Z,6.00
2023-04-24T03:52:53.611Z,5.57
2023-04-24T03:55:40.124Z,5.07
2023-04-24T03:58:26.299Z,4.60
2023-04-24T04:01:13.292Z,3.63
2023-04-24T04:03:59.950Z,3.87
2023-04-24T04:06:47.610Z,4.17
2023-04-24T04:09:35.782Z,4.57
2023-04-24T04:12:22.272Z,5.20
2023-04-24T04:15:09.196Z,5.97
2023-04-24T04:17:55.667Z,218.63
2023-04-24T04:20:42.324Z,520.10
2023-04-24T04:23:29.141Z,231.40
2023-04-24T04:26:17.175Z,105.27
2023-04-24T04:29:04.673Z,221.20
2023-04-24T04:31:50.911Z,55.47
2023-04-24T04:34:38.717Z,19.57
2023-04-24T04:37:25.123Z,21.50
2023-04-24T04:40:12.952Z,15.30
2023-04-24T04:43:00.790Z,10.00
2023-04-24T04:45:49.458Z,6.33
2023-04-24T04:48:36.399Z,5.93
2023-04-24T04:51:22.861Z,6.40
2023-04-24T04:54:09.525Z,7.83
2023-04-24T04:56:55.869Z,7.10
2023-04-24T04:59:44.130Z,6.60
2023-04-24T05:02:30.810Z,5.37
2023-04-24T05:05:25.277Z,3.83
2023-04-24T05:08:23.664Z,3.77
2023-04-24T05:11:14.766Z,4.07
2023-04-24T05:14:01.328Z,4.20
2023-04-24T05:16:49.300Z,4.00
2023-04-24T05:19:37.130Z,5.53
2023-04-24T05:22:24.896Z,6.40
2023-04-24T05:25:11.358Z,4.53
2023-04-24T05:27:57.862Z,5.17
2023-04-24T05:30:44.160Z,4.80
2023-04-24T05:33:31.961Z,4.37
2023-04-24T05:36:18.299Z,4.77
2023-04-24T05:39:08.139Z,4.33
2023-04-24T05:41:54.989Z,4.13
2023-04-24T05:44:41.837Z,5.33
2023-04-24T05:47:28.528Z,4.10
2023-04-24T05:50:16.212Z,7.40
2023-04-24T05:53:03.326Z,4.30
2023-04-24T05:55:49.678Z,3.97
2023-04-24T05:58:36.106Z,3.60
2023-04-24T06:01:22.544Z,3.77
2023-04-24T06:04:09.360Z,4.13
2023-04-24T06:06:57.938Z,3.93
2023-04-24T06:09:44.594Z,3.50
2023-04-24T06:12:31.510Z,3.80
2023-04-24T06:15:18.281Z,4.23
2023-04-24T06:18:04.609Z,4.30
2023-04-24T06:20:51.341Z,3.93
2023-04-24T06:23:39.194Z,3.30
2023-04-24T06:26:26.182Z,3.90
2023-04-24T06:29:12.917Z,6.17
2023-04-24T06:31:59.540Z,3.40
2023-04-24T06:34:46.321Z,3.80
2023-04-24T06:37:33.265Z,3.80
2023-04-24T06:40:20.785Z,4.40
2023-04-24T06:43:07.712Z,3.03
2023-04-24T06:45:54.474Z,3.87
2023-04-24T06:48:41.238Z,4.10
2023-04-24T06:51:27.771Z,3.40
2023-04-24T06:54:14.174Z,2.80
2023-04-24T06:57:03.496Z,4.27
2023-04-24T06:59:50.022Z,3.93
2023-04-24T07:02:36.624Z,4.00
2023-04-24T07:05:24.418Z,3.83
2023-04-24T07:08:12.531Z,3.50
2023-04-24T07:10:59.362Z,2.73
2023-04-24T07:13:47.445Z,3.20
2023-04-24T07:16:34.318Z,3.63
2023-04-24T07:19:20.983Z,3.57
2023-04-24T07:22:07.180Z,4.17
2023-04-24T07:24:53.411Z,4.30
2023-04-24T07:27:40.225Z,4.00
2023-04-24T07:30:29.906Z,4.37
2023-04-24T07:33:16.629Z,3.97
2023-04-24T07:36:02.919Z,3.37
2023-04-24T07:38:49.665Z,4.23
2023-04-24T07:41:35.791Z,2.90
2023-04-24T07:44:22.801Z,3.53
2023-04-24T07:47:10.852Z,3.70
2023-04-24T07:49:57.324Z,3.63
2023-04-24T07:52:43.780Z,3.60
2023-04-24T07:55:30.348Z,3.33
2023-04-24T07:58:17.229Z,4.33
2023-04-24T08:01:03.806Z,3.43
2023-04-24T08:03:52.190Z,3.20
2023-04-24T08:06:39.144Z,3.30
2023-04-24T08:09:27.443Z,3.47
2023-04-24T08:12:14.307Z,2.90
2023-04-24T08:15:00.661Z,3.20
2023-04-24T08:17:47.100Z,3.17
2023-04-24T08:20:35.341Z,3.37
2023-04-24T08:23:21.802Z,3.27
2023-04-24T08:26:08.493Z,3.53
2023-04-24T08:28:55.046Z,4.27
2023-04-24T08:31:41.157Z,3.17
2023-04-24T08:34:27.783Z,3.13
2023-04-24T08:37:15.830Z,3.47
2023-04-24T08:40:02.961Z,2.87
2023-04-24T08:42:52.649Z,3.53
2023-04-24T08:45:40.516Z,3.40
2023-04-24T08:48:31.570Z,3.33
2023-04-24T08:51:19.121Z,3.57
2023-04-24T08:54:08.321Z,3.40
2023-04-24T08:57:05.283Z,3.07
2023-04-24T08:59:51.876Z,3.63
2023-04-24T09:03:03.467Z,3.43
2023-04-24T09:06:03.233Z,3.57
2023-04-24T09:08:54.641Z,3.63
2023-04-24T09:11:42.528Z,3.53
2023-04-24T09:14:29.343Z,3.17
2023-04-24T09:17:15.895Z,3.40
2023-04-24T09:20:02.536Z,3.30
2023-04-24T09:22:49.615Z,4.23
2023-04-24T09:25:36.979Z,3.63
2023-04-24T09:28:27.147Z,3.50
2023-04-24T09:31:15.741Z,3.20
2023-04-24T09:34:06.444Z,3.07
2023-04-24T09:36:54.559Z,2.97
2023-04-24T09:39:42.315Z,12.37
2023-04-24T09:42:31.550Z,3.60
2023-04-24T09:45:19.789Z,2.83
2023-04-24T09:48:07.528Z,3.37
2023-04-24T09:50:54.431Z,3.43
2023-04-24T09:53:41.607Z,4.00
2023-04-24T09:56:28.305Z,3.40
2023-04-24T09:59:15.790Z,3.17
2023-04-24T10:02:03.951Z,3.10
2023-04-24T10:04:57.185Z,3.00
2023-04-24T10:07:46.457Z,4.57
2023-04-24T10:10:34.752Z,3.33
2023-04-24T10:13:21.673Z,3.57
2023-04-24T10:16:08.637Z,4.30
2023-04-24T10:18:56.695Z,3.87
2023-04-24T10:21:47.312Z,3.23
2023-04-24T10:24:36.326Z,3.13
2023-04-24T10:27:22.725Z,2.73
2023-04-24T10:30:10.005Z,3.33
2023-04-24T10:32:56.939Z,2.90
2023-04-24T10:35:48.903Z,3.33
2023-04-24T10:38:36.342Z,3.20
2023-04-24T10:41:24.840Z,2.63
2023-04-24T10:44:12.303Z,2.83
2023-04-24T10:46:58.749Z,3.13
2023-04-24T10:49:45.152Z,2.93
2023-04-24T10:52:47.123Z,3.27
2023-04-24T10:55:48.694Z,2.97
2023-04-24T10:58:39.567Z,3.87
2023-04-24T11:01:27.873Z,2.83
2023-04-24T11:04:14.283Z,3.27
2023-04-24T11:07:01.335Z,3.37
2023-04-24T11:09:47.725Z,3.23
2023-04-24T11:12:38.262Z,3.40
2023-04-24T11:15:24.919Z,3.23
2023-04-24T11:18:14.903Z,3.73
2023-04-24T11:21:01.545Z,2.97
2023-04-24T11:23:48.442Z,3.73
2023-04-24T11:26:40.613Z,3.53
2023-04-24T11:29:41.855Z,3.10
2023-04-24T11:32:29.691Z,3.03
2023-04-24T11:35:17.377Z,3.30
2023-04-24T11:38:22.635Z,3.60
2023-04-24T11:41:10.719Z,3.00
2023-04-24T11:43:58.339Z,2.90
2023-04-24T11:46:46.426Z,3.17
2023-04-24T11:49:35.673Z,3.20
2023-04-24T11:52:22.125Z,3.50
2023-04-24T11:55:09.778Z,3.37
2023-04-24T11:57:57.791Z,3.30
2023-04-24T12:00:44.300Z,3.60
2023-04-24T12:03:32.417Z,3.10
2023-04-24T12:06:19.325Z,2.90
2023-04-24T12:09:17.393Z,3.30
2023-04-24T12:12:05.666Z,3.27
2023-04-24T12:14:52.621Z,3.07
2023-04-24T12:17:43.000Z,3.40
2023-04-24T12:20:32.227Z,3.30
2023-04-24T12:23:20.427Z,3.30
2023-04-24T12:26:07.166Z,3.00
2023-04-24T12:28:53.637Z,2.83
2023-04-24T12:31:39.871Z,3.57
2023-04-24T12:34:27.580Z,2.93
2023-04-24T12:37:15.129Z,2.60
2023-04-24T12:40:02.403Z,3.30
2023-04-24T12:42:49.785Z,2.80
2023-04-24T12:45:36.144Z,3.03
2023-04-24T12:48:23.539Z,3.40
2023-04-24T12:51:10.163Z,3.30
2023-04-24T12:53:57.892Z,3.27
2023-04-24T12:56:44.251Z,3.10
2023-04-24T12:59:30.756Z,2.30
2023-04-24T13:02:18.708Z,2.63
2023-04-24T13:05:05.050Z,2.80
2023-04-24T13:07:51.889Z,2.40
2023-04-24T13:10:39.819Z,2.83
2023-04-24T13:13:26.053Z,2.97
2023-04-24T13:16:12.832Z,2.70
2023-04-24T13:18:59.392Z,2.80
2023-04-24T13:21:45.563Z,2.83
2023-04-24T13:24:32.269Z,2.60
2023-04-24T13:27:20.394Z,2.60
2023-04-24T13:30:07.484Z,3.30
2023-04-24T13:32:53.709Z,3.30
2023-04-24T13:35:40.454Z,3.70
2023-04-24T13:38:26.649Z,3.40
2023-04-24T13:41:13.174Z,3.17
2023-04-24T13:44:01.087Z,3.57
2023-04-24T13:46:48.517Z,3.03
2023-04-24T13:49:34.849Z,3.10
2023-04-24T13:52:21.635Z,3.27
2023-04-24T13:55:08.642Z,3.60
2023-04-24T13:57:56.196Z,3.70
2023-04-24T14:00:44.236Z,3.90
2023-04-24T14:03:31.046Z,3.60
2023-04-24T14:06:17.356Z,3.20
2023-04-24T14:09:03.981Z,4.13
2023-04-24T14:11:50.524Z,2.83
2023-04-24T14:14:37.118Z,3.77
2023-04-24T14:17:24.947Z,3.27
2023-04-24T14:20:11.735Z,4.10
2023-04-24T14:23:00.038Z,3.33
2023-04-24T14:25:47.095Z,3.60
2023-04-24T14:28:33.648Z,8.90
2023-04-24T14:31:20.565Z,3.33
2023-04-24T14:34:08.457Z,3.37
2023-04-24T14:36:55.633Z,4.03
2023-04-24T14:39:44.437Z,3.90
2023-04-24T14:42:32.647Z,2.50
2023-04-24T14:45:18.840Z,3.77
2023-04-24T14:48:05.912Z,3.50
2023-04-24T14:50:53.712Z,3.53
2023-04-24T14:53:40.173Z,4.20
2023-04-24T14:56:26.664Z,3.40
2023-04-24T14:59:13.312Z,3.80
2023-04-24T15:02:15.048Z,3.50
2023-04-24T15:05:02.606Z,4.17
2023-04-24T15:07:50.509Z,3.80
2023-04-24T15:10:36.912Z,3.23
2023-04-24T15:13:23.470Z,3.53
2023-04-24T15:16:10.339Z,3.90
2023-04-24T15:18:58.152Z,4.10
2023-04-24T15:21:45.550Z,3.80
2023-04-24T15:24:34.656Z,3.87
2023-04-24T15:27:21.997Z,4.33
2023-04-24T15:30:09.088Z,3.70
2023-04-24T15:32:55.856Z,3.97
2023-04-24T15:35:42.420Z,3.63
2023-04-24T15:38:28.876Z,4.07
2023-04-24T15:41:16.487Z,4.03
2023-04-24T15:44:03.013Z,4.10
2023-04-24T15:46:49.505Z,3.83
2023-04-24T15:49:36.089Z,4.40
2023-04-24T15:52:23.363Z,3.73
2023-04-24T15:55:11.099Z,4.30
2023-04-24T15:57:58.554Z,4.77
2023-04-24T16:00:44.927Z,3.93
2023-04-24T16:03:31.284Z,4.40
2023-04-24T16:06:17.548Z,4.60
2023-04-24T16:09:04.064Z,5.53
2023-04-24T16:11:50.754Z,4.20
2023-04-24T16:14:38.553Z,4.93
2023-04-24T16:17:25.005Z,4.40
2023-04-24T16:20:12.033Z,4.30
2023-04-24T16:22:58.040Z,3.97
2023-04-24T16:25:44.237Z,4.30
2023-04-24T16:28:31.775Z,3.80
2023-04-24T16:31:19.411Z,4.40
2023-04-24T16:34:06.289Z,4.10
2023-04-24T16:36:52.756Z,4.43
2023-04-24T16:39:44.052Z,4.70
2023-04-24T16:42:30.453Z,3.70
2023-04-24T16:45:17.060Z,4.37
2023-04-24T16:48:05.350Z,5.10
2023-04-24T16:50:51.815Z,4.10
2023-04-24T16:53:38.295Z,5.77
2023-04-24T16:56:24.742Z,4.70
2023-04-24T16:59:11.142Z,3.70
2023-04-24T17:01:57.201Z,4.00
2023-04-24T17:04:45.377Z,3.30
2023-04-24T17:07:32.006Z,4.20
2023-04-24T17:10:18.442Z,4.40
2023-04-24T17:13:04.620Z,4.63
2023-04-24T17:15:51.380Z,4.47
2023-04-24T17:18:38.136Z,3.73
2023-04-24T17:21:26.680Z,4.13
2023-04-24T17:24:12.825Z,3.83
2023-04-24T17:27:08.087Z,4.10
2023-04-24T17:30:00.819Z,5.10
2023-04-24T17:32:47.533Z,4.57
2023-04-24T17:35:34.297Z,4.87
2023-04-24T17:38:22.782Z,6.13
2023-04-24T17:41:09.281Z,10.33
2023-04-24T17:43:55.967Z,9.27
2023-04-24T17:46:42.661Z,8.33
2023-04-24T17:49:29.247Z,8.30
2023-04-24T17:52:17.750Z,9.13
2023-04-24T17:55:06.340Z,7.43
2023-04-24T17:57:52.569Z,7.17
2023-04-24T18:00:38.986Z,7.23
2023-04-24T18:03:25.483Z,7.03
2023-04-24T18:06:11.951Z,7.70
2023-04-24T18:08:58.374Z,5.40
2023-04-24T18:11:46.783Z,4.37
2023-04-24T18:14:33.150Z,4.70
2023-04-24T18:17:19.684Z,5.37
2023-04-24T18:20:06.537Z,5.30
2023-04-24T18:22:53.272Z,4.97
2023-04-24T18:25:39.530Z,4.27
2023-04-24T18:28:28.573Z,4.70
2023-04-24T18:31:17.614Z,4.53
2023-04-24T18:34:04.027Z,4.07
2023-04-24T18:36:50.182Z,4.40
2023-04-24T18:39:36.686Z,4.10
2023-04-24T18:42:23.614Z,4.67
2023-04-24T18:45:15.075Z,4.00
2023-04-24T18:48:01.745Z,4.47
2023-04-24T18:50:48.400Z,4.60
2023-04-24T18:53:34.944Z,3.40
2023-04-24T18:56:21.302Z,4.20
2023-04-24T18:59:07.908Z,4.13
2023-04-24T19:01:55.942Z,3.47
2023-04-24T19:04:42.078Z,4.33
2023-04-24T19:07:29.370Z,3.13
2023-04-24T19:10:16.713Z,3.20
2023-04-24T19:13:03.083Z,3.43
2023-04-24T19:15:49.497Z,3.87
2023-04-24T19:18:37.829Z,2.97
2023-04-24T19:21:24.240Z,3.97
2023-04-24T19:24:10.934Z,4.07
2023-04-24T19:26:58.325Z,3.10
2023-04-24T19:29:44.620Z,3.50
2023-04-24T19:32:31.142Z,4.03
2023-04-24T19:35:21.509Z,3.20
2023-04-24T19:38:08.050Z,3.57
2023-04-24T19:40:54.355Z,3.30
2023-04-24T19:43:41.161Z,4.57
2023-04-24T19:46:27.579Z,4.63
2023-04-24T19:49:16.085Z,4.37
2023-04-24T19:52:03.998Z,3.70
2023-04-24T19:54:52.251Z,3.90
2023-04-24T19:57:38.458Z,3.60
2023-04-24T20:00:24.872Z,3.87
2023-04-24T20:03:21.625Z,3.33
2023-04-24T20:06:18.022Z,3.43
2023-04-24T20:09:06.852Z,3.57
2023-04-24T20:11:53.703Z,3.63
2023-04-24T20:14:40.154Z,3.40
2023-04-24T20:17:26.964Z,3.03
2023-04-24T20:20:13.714Z,3.33
2023-04-24T20:23:01.138Z,3.33
2023-04-24T20:25:48.714Z,4.10
2023-04-24T20:28:35.755Z,3.63
2023-04-24T20:31:21.869Z,3.30
2023-04-24T20:34:08.720Z,3.40
2023-04-24T20:36:56.602Z,3.17
2023-04-24T20:39:44.606Z,3.07
2023-04-24T20:42:32.679Z,3.17
2023-04-24T20:45:19.507Z,3.80
2023-04-24T20:48:06.165Z,4.07
2023-04-24T20:50:53.905Z,4.03
2023-04-24T20:53:40.414Z,3.57
2023-04-24T20:56:27.204Z,3.47
2023-04-24T20:59:14.969Z,3.20
2023-04-24T21:02:01.631Z,3.40
2023-04-24T21:04:48.329Z,3.93
2023-04-24T21:07:35.300Z,3.67
2023-04-24T21:10:21.949Z,3.77
2023-04-24T21:13:09.006Z,5.33
2023-04-24T21:15:56.901Z,5.03
2023-04-24T21:18:43.697Z,4.77
2023-04-24T21:21:30.060Z,3.77
2023-04-24T21:24:16.354Z,3.53
2023-04-24T21:27:03.329Z,3.80
2023-04-24T21:29:50.177Z,3.70
2023-04-24T21:32:38.834Z,4.10
2023-04-24T21:35:25.537Z,3.90
2023-04-24T21:38:11.930Z,3.87
2023-04-24T21:40:58.447Z,4.30
2023-04-24T21:43:46.200Z,5.03
2023-04-24T21:46:34.840Z,4.13
2023-04-24T21:49:22.978Z,3.63
2023-04-24T21:52:09.384Z,4.10
2023-04-24T21:54:56.058Z,4.23
2023-04-24T21:57:42.809Z,4.13
2023-04-24T22:00:29.101Z,3.90
2023-04-24T22:03:15.994Z,3.60
2023-04-24T22:06:03.565Z,4.10
2023-04-24T22:08:50.036Z,3.83
2023-04-24T22:11:36.925Z,4.10
2023-04-24T22:14:23.652Z,4.20
2023-04-24T22:17:10.545Z,3.97
2023-04-24T22:19:57.302Z,3.90
2023-04-24T22:22:45.300Z,4.10
2023-04-24T22:25:31.629Z,4.00
2023-04-24T22:28:17.911Z,4.23
2023-04-24T22:31:04.739Z,3.70
2023-04-24T22:33:51.747Z,4.27
2023-04-24T22:36:38.355Z,4.30
2023-04-24T22:39:26.191Z,4.13
2023-04-24T22:42:12.792Z,4.60
2023-04-24T22:44:59.404Z,4.60
2023-04-24T22:47:45.561Z,4.53
2023-04-24T22:50:32.289Z,4.77
2023-04-24T22:53:18.673Z,5.07
2023-04-24T22:56:07.283Z,5.00
2023-04-24T22:58:54.047Z,5.00
2023-04-24T23:01:41.096Z,5.00
2023-04-24T23:04:27.947Z,4.73
2023-04-24T23:07:14.869Z,4.60
2023-04-24T23:10:01.354Z,4.93
2023-04-24T23:12:49.147Z,5.20
2023-04-24T23:15:35.528Z,4.50
2023-04-24T23:18:22.059Z,4.47
2023-04-24T23:21:08.443Z,4.77
2023-04-24T23:23:55.193Z,4.33
2023-04-24T23:26:41.692Z,4.47
2023-04-24T23:29:29.596Z,4.50
2023-04-24T23:32:16.292Z,4.67
2023-04-24T23:35:02.870Z,5.13
2023-04-24T23:37:49.256Z,3.87
2023-04-24T23:40:35.684Z,4.77
2023-04-24T23:43:22.112Z,5.33
2023-04-24T23:46:09.870Z,6.47
2023-04-24T23:48:56.367Z,5.63
2023-04-24T23:51:42.797Z,6.10
2023-04-24T23:54:28.986Z,7.93
2023-04-24T23:57:15.740Z,6.40
